KMEM/MEM METAR and TAF weather

Enter ICAO airport designator
Station Type Date Time Source
KMEM METAR 2022/01/23 11:54 UTC NOAA

KMEM 231154Z 21003KT 10SM FEW250 M03/M08 A3019 RMK AO2 SLP226 T10331078 11017 21039 56011 $


Station Type Date Time Source
KMEM Decoded METAR 2022/01/23 11:54 UTC NOAA

MEMPHIS INTERNATIONAL AIRPORT , TN, United States (KMEM) 35-02N 089-59W 86M
Jan 23, 2022 - 06:54 AM EST / 2022.01.23 1154 UTC
Wind: from the SSW (210 degrees) at 3 MPH (3 KT):0
Visibility: 10 mile(s):0
Sky conditions: mostly clear
Temperature: 26.1 F (-3.3 C)
Dew Point: 18.0 F (-7.8 C)
Relative Humidity: 70%
Pressure (altimeter): 30.19 in. Hg (1022 hPa)
Pressure tendency: 0.03 inches (1.1 hPa) lower than three hours ago
ob: KMEM 231154Z 21003KT 10SM FEW250 M03/M08 A3019 RMK AO2 SLP226 T10331078 11017 21039 56011
cycle: 12

Station Type Date Time Source
KMEM TAF 2022/01/23 12:22 UTC NOAA

TAF KMEM 231120Z 2312/2418 VRB03KT P6SM SCT150
FM231700 25011G17KT P6SM FEW250
FM232100 29011KT P6SM SKC
FM240200 VRB03KT P6SM SKC
FM241500 19008KT P6SM FEW250

Example: see airport list